Time,TemperatureF,DewpointF,PressureIn,WindDirection,WindDirectionDegrees,WindSpeedMPH,WindSpeedGustMPH,Humidity,HourlyPrecipIn,Conditions,Clouds,dailyrainin,SoftwareType,DateUTC
2013-04-10 00:03:00,6.0,0.0,30.39,East,101,1.0,2.0,77,0.00,,,0.01,,2013-04-10 06:03:00,
2013-04-10 00:12:00,6.0,0.0,30.40,East,100,2.0,3.0,76,0.00,,,0.01,,2013-04-10 06:12:00,
2013-04-10 00:22:00,6.0,0.0,30.40,East,100,2.0,3.0,76,0.00,,,0.01,,2013-04-10 06:22:00,
2013-04-10 00:32:00,5.0,-1.0,30.40,NE,45,3.0,5.0,76,0.00,,,0.01,,2013-04-10 06:32:00,
2013-04-10 00:42:00,5.0,-1.0,30.40,NE,45,3.0,5.0,76,0.00,,,0.01,,2013-04-10 06:42:00,
2013-04-10 00:52:00,3.0,-3.0,30.38,NNE,28,3.0,6.0,76,0.00,,,0.01,,2013-04-10 06:52:00,
2013-04-10 01:02:00,3.0,-3.0,30.38,NNE,26,1.0,5.0,76,0.00,,,0.01,,2013-04-10 07:02:00,
2013-04-10 01:12:00,3.0,-3.0,30.38,NNE,26,1.0,5.0,76,0.00,,,0.01,,2013-04-10 07:12:00,
2013-04-10 01:22:00,3.0,-3.0,30.40,NNE,26,1.0,2.0,77,0.00,,,0.01,,2013-04-10 07:22:00,
2013-04-10 01:32:00,2.0,-4.0,30.40,NNE,25,1.0,3.0,77,0.00,,,0.01,,2013-04-10 07:32:00,
2013-04-10 01:42:00,2.0,-4.0,30.40,NNE,25,1.0,3.0,77,0.00,,,0.01,,2013-04-10 07:42:00,
2013-04-10 01:52:00,2.0,-4.0,30.42,North,9,1.0,2.0,77,0.00,,,0.01,,2013-04-10 07:52:00,
2013-04-10 02:02:00,1.0,-4.0,30.42,North,9,0.0,1.0,77,0.00,,,0.01,,2013-04-10 08:02:00,
2013-04-10 02:12:00,1.0,-4.0,30.42,North,9,0.0,1.0,77,0.00,,,0.01,,2013-04-10 08:12:00,
2013-04-10 02:22:00,2.0,-4.0,30.41,NNW,330,0.0,2.0,77,0.00,,,0.01,,2013-04-10 08:22:00,
2013-04-10 02:32:00,2.0,-4.0,30.41,NNW,330,0.0,0.0,77,0.00,,,0.01,,2013-04-10 08:32:00,
2013-04-10 02:42:00,2.0,-4.0,30.41,NNW,330,0.0,0.0,77,0.00,,,0.01,,2013-04-10 08:42:00,
2013-04-10 02:52:00,0.0,-6.0,30.39,NNW,330,0.0,2.0,76,0.00,,,0.01,,2013-04-10 08:52:00,
2013-04-10 03:02:00,0.0,-6.0,30.39,NNW,330,2.0,3.0,76,0.00,,,0.01,,2013-04-10 09:02:00,
2013-04-10 03:12:00,-1.0,-7.0,30.38,NNW,330,0.0,2.0,76,0.00,,,0.01,,2013-04-10 09:12:00,
2013-04-10 03:22:00,-1.0,-7.0,30.38,NNW,330,0.0,2.0,76,0.00,,,0.01,,2013-04-10 09:22:00,
2013-04-10 03:32:00,-1.0,-7.0,30.38,NNW,330,1.0,2.0,76,0.00,,,0.01,,2013-04-10 09:32:00,
2013-04-10 03:43:00,-1.0,-7.0,30.38,NNW,330,1.0,2.0,76,0.00,,,0.01,,2013-04-10 09:43:00,
2013-04-10 03:53:00,-1.0,-6.0,30.40,NNW,330,0.0,1.0,77,0.00,,,0.01,,2013-04-10 09:53:00,
2013-04-10 04:03:00,-1.0,-7.0,30.40,NNW,330,0.0,2.0,76,0.00,,,0.01,,2013-04-10 10:03:00,
2013-04-10 04:12:00,0.0,-6.0,30.37,NNE,19,1.0,2.0,76,0.00,,,0.01,,2013-04-10 10:12:00,
2013-04-10 04:23:00,0.0,-6.0,30.37,NNE,19,1.0,2.0,76,0.00,,,0.01,,2013-04-10 10:23:00,
2013-04-10 04:33:00,-1.0,-7.0,30.37,NNE,19,0.0,2.0,76,0.00,,,0.01,,2013-04-10 10:33:00,
2013-04-10 04:42:00,-1.0,-7.0,30.37,NNE,19,0.0,2.0,76,0.00,,,0.01,,2013-04-10 10:42:00,
2013-04-10 04:52:00,-1.0,-7.0,30.39,NNE,19,1.0,2.0,76,0.00,,,0.01,,2013-04-10 10:52:00,
2013-04-10 05:02:00,-2.0,-8.0,30.39,NNE,21,1.0,2.0,76,0.00,,,0.01,,2013-04-10 11:02:00,
2013-04-10 05:12:00,-2.0,-8.0,30.39,NNE,21,1.0,2.0,76,0.00,,,0.01,,2013-04-10 11:12:00,
2013-04-10 05:22:00,-2.0,-8.0,30.40,NNE,18,0.0,3.0,75,0.00,,,0.01,,2013-04-10 11:22:00,
2013-04-10 05:32:00,-2.0,-8.0,30.40,NNE,18,2.0,3.0,76,0.00,,,0.01,,2013-04-10 11:32:00,
2013-04-10 05:42:00,-2.0,-8.0,30.40,NNE,18,2.0,3.0,76,0.00,,,0.01,,2013-04-10 11:42:00,
2013-04-10 05:53:00,-2.0,-8.0,30.44,NNW,337,1.0,3.0,75,0.00,,,0.01,,2013-04-10 11:53:00,
2013-04-10 06:02:00,-2.0,-8.0,30.44,NNW,337,0.0,3.0,76,0.00,,,0.01,,2013-04-10 12:02:00,
2013-04-10 06:12:00,-2.0,-8.0,30.44,NNW,337,0.0,3.0,76,0.00,,,0.01,,2013-04-10 12:12:00,
2013-04-10 06:22:00,-2.0,-8.0,30.43,NNW,337,0.0,0.0,76,0.00,,,0.01,,2013-04-10 12:22:00,
2013-04-10 06:33:00,-1.0,-7.0,30.43,NW,316,1.0,3.0,76,0.00,,,0.01,,2013-04-10 12:33:00,
2013-04-10 06:42:00,-1.0,-7.0,30.43,NW,316,1.0,3.0,76,0.00,,,0.01,,2013-04-10 12:42:00,
2013-04-10 06:52:00,-1.0,-7.0,30.43,NE,52,1.0,3.0,74,0.00,,,0.01,,2013-04-10 12:52:00,
2013-04-10 07:02:00,-2.0,-8.0,30.43,NNE,14,2.0,5.0,75,0.00,,,0.01,,2013-04-10 13:02:00,
2013-04-10 07:12:00,-2.0,-8.0,30.43,NNE,14,2.0,5.0,75,0.00,,,0.01,,2013-04-10 13:12:00,
2013-04-10 07:23:00,1.0,-4.0,30.44,North,11,3.0,6.0,77,0.00,,,0.01,,2013-04-10 13:23:00,
2013-04-10 07:32:00,2.0,-4.0,30.44,NNE,12,0.0,3.0,77,0.00,,,0.01,,2013-04-10 13:32:00,
2013-04-10 07:43:00,2.0,-4.0,30.44,NNE,12,0.0,3.0,77,0.00,,,0.01,,2013-04-10 13:43:00,
2013-04-10 07:53:00,4.0,-2.0,30.40,WNW,286,2.0,3.0,75,0.00,,,0.01,,2013-04-10 13:53:00,
2013-04-10 08:02:00,5.0,-1.0,30.40,WNW,285,0.0,3.0,76,0.00,,,0.01,,2013-04-10 14:02:00,
2013-04-10 08:12:00,5.0,-1.0,30.40,WNW,285,0.0,3.0,76,0.00,,,0.01,,2013-04-10 14:12:00,
2013-04-10 08:22:00,6.0,0.0,30.38,West,275,0.0,3.0,74,0.00,,,0.01,,2013-04-10 14:22:00,
2013-04-10 08:32:00,7.0,0.0,30.38,NE,50,1.0,2.0,73,0.00,,,0.01,,2013-04-10 14:32:00,
2013-04-10 08:42:00,9.0,1.0,30.37,ENE,57,1.0,3.0,70,0.00,,,0.01,,2013-04-10 14:42:00,
2013-04-10 08:52:00,9.0,1.0,30.37,ENE,57,1.0,3.0,70,0.00,,,0.01,,2013-04-10 14:52:00,
2013-04-10 09:02:00,10.0,3.0,30.37,North,0,2.0,3.0,72,0.00,,,0.01,,2013-04-10 15:02:00,
2013-04-10 09:12:00,10.0,3.0,30.37,North,0,2.0,3.0,72,0.00,,,0.01,,2013-04-10 15:12:00,
2013-04-10 09:22:00,15.0,6.0,30.33,NNE,15,1.0,3.0,67,0.00,,,0.01,,2013-04-10 15:22:00,
2013-04-10 09:32:00,16.0,7.0,30.33,NE,36,1.0,3.0,66,0.00,,,0.01,,2013-04-10 15:32:00,
2013-04-10 09:42:00,16.0,7.0,30.33,NE,36,1.0,3.0,66,0.00,,,0.01,,2013-04-10 15:42:00,
2013-04-10 09:52:00,16.0,7.0,30.31,NE,42,1.0,2.0,66,0.00,,,0.01,,2013-04-10 15:52:00,
2013-04-10 10:03:00,17.0,8.0,30.31,NNW,344,1.0,5.0,67,0.00,,,0.01,,2013-04-10 16:03:00,
2013-04-10 10:13:00,17.0,8.0,30.31,NNW,344,1.0,5.0,67,0.00,,,0.01,,2013-04-10 16:13:00,
2013-04-10 10:23:00,18.0,9.0,30.27,East,86,0.0,2.0,66,0.00,,,0.01,,2013-04-10 16:23:00,
2013-04-10 10:33:00,17.0,8.0,30.27,ESE,111,0.0,1.0,66,0.01,,,0.02,,2013-04-10 16:33:00,
2013-04-10 10:43:00,17.0,8.0,30.27,ESE,111,0.0,1.0,66,0.01,,,0.02,,2013-04-10 16:43:00,
2013-04-10 10:53:00,17.0,8.0,30.28,ESE,122,0.0,1.0,67,0.01,,,0.02,,2013-04-10 16:53:00,
2013-04-10 11:02:00,19.0,10.0,30.28,ESE,122,0.0,1.0,67,0.03,,,0.04,,2013-04-10 17:02:00,
2013-04-10 11:12:00,24.0,13.0,30.20,NE,53,2.0,3.0,63,0.05,,,0.06,,2013-04-10 17:12:00,
2013-04-10 11:22:00,24.0,13.0,30.20,NE,53,2.0,3.0,63,0.05,,,0.06,,2013-04-10 17:22:00,
2013-04-10 11:33:00,25.0,13.0,30.20,East,93,6.0,10.0,60,0.05,,,0.07,,2013-04-10 17:33:00,
2013-04-10 11:42:00,25.0,13.0,30.20,East,93,6.0,10.0,60,0.05,,,0.07,,2013-04-10 17:42:00,
2013-04-10 11:52:00,23.0,12.0,30.22,ENE,60,7.0,14.0,63,0.05,,,0.08,,2013-04-10 17:52:00,
2013-04-10 12:02:00,24.0,13.0,30.22,East,83,6.0,16.0,62,0.04,,,0.08,,2013-04-10 18:02:00,
2013-04-10 12:12:00,24.0,13.0,30.22,East,83,6.0,16.0,62,0.04,,,0.08,,2013-04-10 18:12:00,
2013-04-10 12:23:00,24.0,14.0,30.18,East,80,6.0,13.0,64,0.03,,,0.09,,2013-04-10 18:23:00,
2013-04-10 12:33:00,24.0,15.0,30.18,ENE,76,6.0,14.0,67,0.02,,,0.09,,2013-04-10 18:33:00,
2013-04-10 12:42:00,24.0,15.0,30.18,ENE,76,6.0,14.0,67,0.02,,,0.09,,2013-04-10 18:42:00,
2013-04-10 12:52:00,23.0,14.0,30.22,East,88,9.0,14.0,68,0.02,,,0.10,,2013-04-10 18:52:00,
2013-04-10 13:03:00,22.0,13.0,30.22,East,93,6.0,13.0,69,0.02,,,0.10,,2013-04-10 19:03:00,
2013-04-10 13:12:00,22.0,13.0,30.22,East,93,6.0,13.0,69,0.02,,,0.10,,2013-04-10 19:12:00,
2013-04-10 13:22:00,22.0,13.0,30.23,East,88,7.0,13.0,67,0.01,,,0.10,,2013-04-10 19:22:00,
2013-04-10 13:33:00,22.0,14.0,30.23,East,86,5.0,12.0,70,0.01,,,0.10,,2013-04-10 19:33:00,
2013-04-10 13:42:00,22.0,14.0,30.23,East,86,5.0,12.0,70,0.01,,,0.10,,2013-04-10 19:42:00,
2013-04-10 13:53:00,24.0,16.0,30.21,East,84,10.0,14.0,70,0.00,,,0.09,,2013-04-10 19:53:00,
2013-04-10 14:02:00,25.0,16.0,30.21,ENE,64,5.0,14.0,68,0.00,,,0.09,,2013-04-10 20:02:00,
2013-04-10 14:12:00,24.0,15.0,30.20,East,84,6.0,13.0,67,0.00,,,0.09,,2013-04-10 20:12:00,
2013-04-10 14:23:00,24.0,15.0,30.20,East,84,6.0,13.0,67,0.00,,,0.09,,2013-04-10 20:23:00,
2013-04-10 14:33:00,25.0,17.0,30.20,East,90,8.0,13.0,70,0.01,,,0.10,,2013-04-10 20:33:00,
2013-04-10 14:42:00,23.0,15.0,30.24,East,97,5.0,12.0,72,0.01,,,0.10,,2013-04-10 20:42:00,
2013-04-10 14:52:00,23.0,15.0,30.24,East,97,5.0,12.0,72,0.01,,,0.10,,2013-04-10 20:52:00,
2013-04-10 15:02:00,23.0,16.0,30.24,East,90,5.0,12.0,75,0.01,,,0.10,,2013-04-10 21:02:00,
2013-04-10 15:12:00,25.0,18.0,30.23,ENE,74,6.0,12.0,73,0.01,,,0.10,,2013-04-10 21:12:00,
2013-04-10 15:22:00,25.0,18.0,30.23,ENE,74,6.0,12.0,73,0.01,,,0.10,,2013-04-10 21:22:00,
2013-04-10 15:33:00,24.0,16.0,30.23,East,91,6.0,10.0,71,0.00,,,0.10,,2013-04-10 21:33:00,
2013-04-10 15:42:00,24.0,16.0,30.23,East,91,6.0,10.0,71,0.00,,,0.10,,2013-04-10 21:42:00,
2013-04-10 15:53:00,25.0,18.0,30.20,ENE,63,6.0,12.0,73,0.00,,,0.10,,2013-04-10 21:53:00,
2013-04-10 16:03:00,25.0,17.0,30.20,ENE,63,5.0,10.0,72,0.00,,,0.10,,2013-04-10 22:03:00,
2013-04-10 16:12:00,25.0,18.0,30.19,East,94,3.0,13.0,73,0.00,,,0.10,,2013-04-10 22:12:00,
2013-04-10 16:23:00,25.0,18.0,30.19,East,94,3.0,13.0,73,0.00,,,0.10,,2013-04-10 22:23:00,
2013-04-10 16:33:00,25.0,18.0,30.19,East,86,9.0,14.0,75,0.00,,,0.10,,2013-04-10 22:33:00,
2013-04-10 16:42:00,25.0,18.0,30.19,East,86,9.0,14.0,75,0.00,,,0.10,,2013-04-10 22:42:00,
2013-04-10 16:53:00,23.0,17.0,30.23,East,91,6.0,12.0,76,0.00,,,0.10,,2013-04-10 22:53:00,
2013-04-10 17:02:00,23.0,17.0,30.23,East,83,8.0,13.0,76,0.00,,,0.10,,2013-04-10 23:02:00,
2013-04-10 17:12:00,22.0,16.0,30.22,ENE,77,6.0,14.0,77,0.00,,,0.10,,2013-04-10 23:12:00,
2013-04-10 17:22:00,22.0,16.0,30.22,ENE,77,6.0,14.0,77,0.00,,,0.10,,2013-04-10 23:22:00,
2013-04-10 17:32:00,23.0,17.0,30.22,ENE,66,10.0,14.0,77,0.00,,,0.10,,2013-04-10 23:32:00,
2013-04-10 17:42:00,23.0,17.0,30.22,ENE,66,10.0,14.0,77,0.00,,,0.10,,2013-04-10 23:42:00,
2013-04-10 17:53:00,23.0,17.0,30.22,East,81,6.0,12.0,76,0.00,,,0.10,,2013-04-10 23:53:00,
2013-04-10 18:02:00,23.0,16.0,30.22,ENE,74,9.0,14.0,75,0.00,,,0.10,,2013-04-11 00:02:00,
2013-04-10 18:12:00,24.0,17.0,30.19,ENE,73,6.0,14.0,74,0.00,,,0.10,,2013-04-11 00:12:00,
2013-04-10 18:22:00,24.0,17.0,30.19,ENE,73,6.0,14.0,74,0.00,,,0.10,,2013-04-11 00:22:00,
2013-04-10 18:32:00,24.0,17.0,30.19,ENE,77,6.0,17.0,73,0.00,,,0.10,,2013-04-11 00:32:00,
2013-04-10 18:42:00,23.0,16.0,30.19,ENE,70,8.0,14.0,74,0.00,,,0.10,,2013-04-11 00:42:00,
2013-04-10 18:53:00,23.0,16.0,30.19,ENE,70,8.0,14.0,74,0.00,,,0.10,,2013-04-11 00:53:00,
2013-04-10 19:02:00,22.0,15.0,30.19,ENE,57,8.0,14.0,75,0.00,,,0.10,,2013-04-11 01:02:00,
2013-04-10 19:12:00,21.0,15.0,30.20,NNE,26,6.0,12.0,77,0.00,,,0.10,,2013-04-11 01:12:00,
2013-04-10 19:32:00,21.0,15.0,30.20,NNE,16,5.0,8.0,77,0.00,,,0.10,,2013-04-11 01:32:00,
2013-04-10 19:42:00,20.0,15.0,30.17,NNE,14,5.0,12.0,79,0.00,,,0.10,,2013-04-11 01:42:00,
2013-04-10 19:52:00,20.0,15.0,30.17,NNE,14,5.0,12.0,79,0.00,,,0.10,,2013-04-11 01:52:00,
2013-04-10 20:02:00,20.0,15.0,30.17,NE,42,4.0,8.0,80,0.00,,,0.10,,2013-04-11 02:02:00,
2013-04-10 20:12:00,20.0,15.0,30.17,NE,42,3.0,10.0,79,0.00,,,0.10,,2013-04-11 02:12:00,
2013-04-10 20:22:00,20.0,15.0,30.17,NE,42,3.0,10.0,79,0.00,,,0.10,,2013-04-11 02:22:00,
2013-04-10 20:32:00,19.0,14.0,30.19,East,97,1.0,6.0,79,0.00,,,0.10,,2013-04-11 02:32:00,
2013-04-10 20:42:00,19.0,14.0,30.19,East,97,1.0,6.0,79,0.00,,,0.10,,2013-04-11 02:42:00,
2013-04-10 20:52:00,23.0,15.0,30.08,WSW,247,8.0,12.0,70,0.00,,,0.10,,2013-04-11 02:52:00,
2013-04-10 21:02:00,27.0,12.0,30.08,West,264,11.0,24.0,52,0.00,,,0.10,,2013-04-11 03:02:00,
2013-04-10 21:12:00,27.0,10.0,30.02,WSW,258,10.0,26.0,49,0.00,,,0.10,,2013-04-11 03:12:00,
2013-04-10 21:22:00,27.0,10.0,30.02,WSW,258,10.0,26.0,49,0.00,,,0.10,,2013-04-11 03:22:00,
2013-04-10 21:33:00,27.0,8.0,30.02,WSW,254,13.0,24.0,44,0.00,,,0.10,,2013-04-11 03:33:00,
2013-04-10 21:43:00,27.0,5.0,30.01,WNW,289,12.0,21.0,39,0.00,,,0.10,,2013-04-11 03:43:00,
2013-04-10 21:53:00,27.0,5.0,30.01,WNW,289,12.0,21.0,39,0.00,,,0.10,,2013-04-11 03:53:00,
2013-04-10 22:03:00,27.0,5.0,30.01,WNW,296,7.0,24.0,39,0.00,,,0.10,,2013-04-11 04:03:00,
2013-04-10 22:12:00,27.0,5.0,30.01,West,279,10.0,24.0,38,0.00,,,0.10,,2013-04-11 04:12:00,
2013-04-10 22:22:00,27.0,5.0,30.01,West,279,10.0,24.0,38,0.00,,,0.10,,2013-04-11 04:22:00,
2013-04-10 22:33:00,28.0,3.0,30.01,SW,223,7.0,16.0,34,0.00,,,0.10,,2013-04-11 04:33:00,
2013-04-10 22:42:00,28.0,3.0,30.01,SW,223,7.0,16.0,34,0.00,,,0.10,,2013-04-11 04:42:00,
2013-04-10 22:52:00,28.0,5.0,29.93,SW,220,12.0,20.0,37,0.00,,,0.10,,2013-04-11 04:52:00,
2013-04-10 23:02:00,28.0,6.0,29.93,WSW,249,12.0,22.0,39,0.00,,,0.10,,2013-04-11 05:02:00,
2013-04-10 23:13:00,28.0,6.0,29.93,WSW,249,12.0,22.0,39,0.00,,,0.10,,2013-04-11 05:13:00,
2013-04-10 23:22:00,28.0,6.0,29.92,SW,234,17.0,26.0,39,0.00,,,0.10,,2013-04-11 05:22:00,
2013-04-10 23:32:00,28.0,7.0,29.92,WSW,238,10.0,22.0,41,0.00,,,0.10,,2013-04-11 05:32:00,
2013-04-10 23:42:00,28.0,7.0,29.92,WSW,238,10.0,22.0,41,0.00,,,0.10,,2013-04-11 05:42:00,
2013-04-10 23:52:00,28.0,7.0,29.91,South,187,9.0,20.0,41,0.00,,,0.10,,2013-04-11 05:52:00,